sensor_id;sensor_type;location;lat;lon;timestamp;temperature;humidity
43697;DHT22;29301;47.620;19.560;2023-05-10T00:00:39;10.80;53.50
43697;DHT22;29301;47.620;19.560;2023-05-10T00:03:04;10.70;53.80
43697;DHT22;29301;47.620;19.560;2023-05-10T00:05:31;10.60;54.00
43697;DHT22;29301;47.620;19.560;2023-05-10T00:07:57;10.60;54.50
43697;DHT22;29301;47.620;19.560;2023-05-10T00:10:23;10.60;54.90
43697;DHT22;29301;47.620;19.560;2023-05-10T00:12:48;10.60;55.10
43697;DHT22;29301;47.620;19.560;2023-05-10T00:15:14;10.70;55.10
43697;DHT22;29301;47.620;19.560;2023-05-10T00:17:40;10.70;54.90
43697;DHT22;29301;47.620;19.560;2023-05-10T00:20:06;10.80;54.70
43697;DHT22;29301;47.620;19.560;2023-05-10T00:22:32;10.80;55.00
43697;DHT22;29301;47.620;19.560;2023-05-10T00:24:58;10.80;54.60
43697;DHT22;29301;47.620;19.560;2023-05-10T00:27:24;10.90;54.50
43697;DHT22;29301;47.620;19.560;2023-05-10T00:29:49;10.90;54.40
43697;DHT22;29301;47.620;19.560;2023-05-10T00:32:15;10.90;54.60
43697;DHT22;29301;47.620;19.560;2023-05-10T00:34:41;10.90;54.60
43697;DHT22;29301;47.620;19.560;2023-05-10T00:37:07;10.90;54.80
43697;DHT22;29301;47.620;19.560;2023-05-10T00:39:33;10.90;55.30
43697;DHT22;29301;47.620;19.560;2023-05-10T00:41:58;10.90;55.60
43697;DHT22;29301;47.620;19.560;2023-05-10T00:44:25;10.90;55.70
43697;DHT22;29301;47.620;19.560;2023-05-10T00:46:51;10.90;56.00
43697;DHT22;29301;47.620;19.560;2023-05-10T00:49:17;10.90;56.20
43697;DHT22;29301;47.620;19.560;2023-05-10T00:51:44;11.00;56.20
43697;DHT22;29301;47.620;19.560;2023-05-10T00:54:12;11.00;56.30
43697;DHT22;29301;47.620;19.560;2023-05-10T00:56:39;10.90;56.40
43697;DHT22;29301;47.620;19.560;2023-05-10T00:59:06;10.90;56.90
43697;DHT22;29301;47.620;19.560;2023-05-10T01:01:32;10.80;57.10
43697;DHT22;29301;47.620;19.560;2023-05-10T01:03:58;10.80;57.20
43697;DHT22;29301;47.620;19.560;2023-05-10T01:06:24;10.70;57.30
43697;DHT22;29301;47.620;19.560;2023-05-10T01:08:50;10.70;57.70
43697;DHT22;29301;47.620;19.560;2023-05-10T01:11:16;10.70;57.70
43697;DHT22;29301;47.620;19.560;2023-05-10T01:13:43;10.60;58.20
43697;DHT22;29301;47.620;19.560;2023-05-10T01:16:11;10.60;58.30
43697;DHT22;29301;47.620;19.560;2023-05-10T01:18:39;10.60;58.80
43697;DHT22;29301;47.620;19.560;2023-05-10T01:24:12;10.60;58.60
43697;DHT22;29301;47.620;19.560;2023-05-10T01:37:33;10.60;59.40
43697;DHT22;29301;47.620;19.560;2023-05-10T01:40:14;10.50;59.50
43697;DHT22;29301;47.620;19.560;2023-05-10T01:42:51;10.60;59.50
43697;DHT22;29301;47.620;19.560;2023-05-10T01:45:27;10.70;59.30
43697;DHT22;29301;47.620;19.560;2023-05-10T01:48:14;10.70;59.00
43697;DHT22;29301;47.620;19.560;2023-05-10T01:50:43;10.70;58.90
43697;DHT22;29301;47.620;19.560;2023-05-10T01:53:12;10.70;58.90
43697;DHT22;29301;47.620;19.560;2023-05-10T01:55:49;10.70;59.00
43697;DHT22;29301;47.620;19.560;2023-05-10T01:58:22;10.60;59.20
43697;DHT22;29301;47.620;19.560;2023-05-10T02:00:49;10.50;59.80
43697;DHT22;29301;47.620;19.560;2023-05-10T02:03:16;10.50;60.20
43697;DHT22;29301;47.620;19.560;2023-05-10T02:05:44;10.50;59.90
43697;DHT22;29301;47.620;19.560;2023-05-10T02:08:12;10.60;58.80
43697;DHT22;29301;47.620;19.560;2023-05-10T02:10:39;10.60;58.30
43697;DHT22;29301;47.620;19.560;2023-05-10T02:13:06;10.60;58.30
43697;DHT22;29301;47.620;19.560;2023-05-10T02:15:33;10.40;59.60
43697;DHT22;29301;47.620;19.560;2023-05-10T02:18:00;10.30;59.60
43697;DHT22;29301;47.620;19.560;2023-05-10T02:20:28;10.30;60.20
43697;DHT22;29301;47.620;19.560;2023-05-10T02:22:56;10.40;59.80
43697;DHT22;29301;47.620;19.560;2023-05-10T02:25:23;10.50;58.90
43697;DHT22;29301;47.620;19.560;2023-05-10T02:27:52;10.50;58.70
43697;DHT22;29301;47.620;19.560;2023-05-10T02:30:19;10.50;58.60
43697;DHT22;29301;47.620;19.560;2023-05-10T02:32:46;10.50;58.50
43697;DHT22;29301;47.620;19.560;2023-05-10T02:35:12;10.60;58.30
43697;DHT22;29301;47.620;19.560;2023-05-10T02:37:39;10.70;57.90
43697;DHT22;29301;47.620;19.560;2023-05-10T02:40:06;10.80;57.50
43697;DHT22;29301;47.620;19.560;2023-05-10T02:42:35;11.00;57.10
43697;DHT22;29301;47.620;19.560;2023-05-10T02:45:03;11.00;56.60
43697;DHT22;29301;47.620;19.560;2023-05-10T02:47:30;11.00;56.50
43697;DHT22;29301;47.620;19.560;2023-05-10T02:49:56;10.90;56.60
43697;DHT22;29301;47.620;19.560;2023-05-10T02:52:27;11.00;56.60
43697;DHT22;29301;47.620;19.560;2023-05-10T02:55:00;11.00;56.70
43697;DHT22;29301;47.620;19.560;2023-05-10T02:57:28;11.10;56.70
43697;DHT22;29301;47.620;19.560;2023-05-10T02:59:56;11.20;57.30
43697;DHT22;29301;47.620;19.560;2023-05-10T03:02:21;11.20;58.40
43697;DHT22;29301;47.620;19.560;2023-05-10T03:04:47;11.30;59.10
43697;DHT22;29301;47.620;19.560;2023-05-10T03:07:13;11.40;59.80
43697;DHT22;29301;47.620;19.560;2023-05-10T03:09:39;11.40;60.70
43697;DHT22;29301;47.620;19.560;2023-05-10T03:18:02;11.30;63.00
43697;DHT22;29301;47.620;19.560;2023-05-10T03:23:22;11.30;66.50
43697;DHT22;29301;47.620;19.560;2023-05-10T03:25:50;11.40;68.40
43697;DHT22;29301;47.620;19.560;2023-05-10T03:28:19;11.40;69.30
43697;DHT22;29301;47.620;19.560;2023-05-10T03:30:46;11.30;70.10
43697;DHT22;29301;47.620;19.560;2023-05-10T03:33:12;11.30;70.90
43697;DHT22;29301;47.620;19.560;2023-05-10T03:35:39;11.30;72.90
43697;DHT22;29301;47.620;19.560;2023-05-10T03:38:05;11.30;73.00
43697;DHT22;29301;47.620;19.560;2023-05-10T03:40:30;11.30;73.10
43697;DHT22;29301;47.620;19.560;2023-05-10T03:42:58;11.30;73.90
43697;DHT22;29301;47.620;19.560;2023-05-10T03:45:24;11.30;74.30
43697;DHT22;29301;47.620;19.560;2023-05-10T03:47:50;11.20;75.50
43697;DHT22;29301;47.620;19.560;2023-05-10T03:50:15;11.20;76.30
43697;DHT22;29301;47.620;19.560;2023-05-10T03:52:41;11.20;77.10
43697;DHT22;29301;47.620;19.560;2023-05-10T03:55:07;11.20;76.90
43697;DHT22;29301;47.620;19.560;2023-05-10T03:57:33;11.20;77.90
43697;DHT22;29301;47.620;19.560;2023-05-10T03:59:59;11.20;78.60
43697;DHT22;29301;47.620;19.560;2023-05-10T04:02:25;11.30;78.70
43697;DHT22;29301;47.620;19.560;2023-05-10T04:04:50;11.20;78.40
43697;DHT22;29301;47.620;19.560;2023-05-10T04:07:16;11.20;78.70
43697;DHT22;29301;47.620;19.560;2023-05-10T04:09:43;11.30;79.40
43697;DHT22;29301;47.620;19.560;2023-05-10T04:12:09;11.30;80.00
43697;DHT22;29301;47.620;19.560;2023-05-10T04:14:35;11.40;81.20
43697;DHT22;29301;47.620;19.560;2023-05-10T04:17:00;11.50;80.50
43697;DHT22;29301;47.620;19.560;2023-05-10T04:19:32;11.40;79.50
43697;DHT22;29301;47.620;19.560;2023-05-10T04:21:58;11.40;79.90
43697;DHT22;29301;47.620;19.560;2023-05-10T04:24:24;11.40;79.90
43697;DHT22;29301;47.620;19.560;2023-05-10T04:26:50;11.30;80.60
43697;DHT22;29301;47.620;19.560;2023-05-10T04:29:16;11.30;80.80
43697;DHT22;29301;47.620;19.560;2023-05-10T04:31:42;11.20;82.20
43697;DHT22;29301;47.620;19.560;2023-05-10T04:34:08;11.20;83.70
43697;DHT22;29301;47.620;19.560;2023-05-10T04:36:33;11.00;85.80
43697;DHT22;29301;47.620;19.560;2023-05-10T04:39:01;11.00;87.60
43697;DHT22;29301;47.620;19.560;2023-05-10T04:41:28;11.00;88.90
43697;DHT22;29301;47.620;19.560;2023-05-10T04:43:54;11.10;88.60
43697;DHT22;29301;47.620;19.560;2023-05-10T04:46:20;11.20;88.00
43697;DHT22;29301;47.620;19.560;2023-05-10T04:48:46;11.20;87.10
43697;DHT22;29301;47.620;19.560;2023-05-10T04:51:11;11.20;86.90
43697;DHT22;29301;47.620;19.560;2023-05-10T04:53:37;11.10;87.10
43697;DHT22;29301;47.620;19.560;2023-05-10T04:56:03;11.10;87.70
43697;DHT22;29301;47.620;19.560;2023-05-10T04:58:29;11.20;87.90
43697;DHT22;29301;47.620;19.560;2023-05-10T05:00:55;11.40;86.80
43697;DHT22;29301;47.620;19.560;2023-05-10T05:03:21;11.50;86.30
43697;DHT22;29301;47.620;19.560;2023-05-10T05:05:47;11.50;84.80
43697;DHT22;29301;47.620;19.560;2023-05-10T05:08:13;11.50;84.20
43697;DHT22;29301;47.620;19.560;2023-05-10T05:10:39;11.60;83.20
43697;DHT22;29301;47.620;19.560;2023-05-10T05:13:04;11.50;80.10
43697;DHT22;29301;47.620;19.560;2023-05-10T05:15:30;11.60;77.40
43697;DHT22;29301;47.620;19.560;2023-05-10T05:17:56;11.60;75.80
43697;DHT22;29301;47.620;19.560;2023-05-10T05:20:22;11.80;73.20
43697;DHT22;29301;47.620;19.560;2023-05-10T05:22:47;11.80;71.20
43697;DHT22;29301;47.620;19.560;2023-05-10T05:25:13;11.80;68.70
43697;DHT22;29301;47.620;19.560;2023-05-10T05:27:40;11.90;67.00
43697;DHT22;29301;47.620;19.560;2023-05-10T05:30:06;12.00;65.50
43697;DHT22;29301;47.620;19.560;2023-05-10T05:32:32;11.90;65.30
43697;DHT22;29301;47.620;19.560;2023-05-10T05:34:58;12.00;64.50
43697;DHT22;29301;47.620;19.560;2023-05-10T05:37:23;12.00;64.00
43697;DHT22;29301;47.620;19.560;2023-05-10T05:39:50;12.00;64.30
43697;DHT22;29301;47.620;19.560;2023-05-10T05:42:15;12.10;64.10
43697;DHT22;29301;47.620;19.560;2023-05-10T05:44:43;12.10;64.00
43697;DHT22;29301;47.620;19.560;2023-05-10T05:47:09;12.10;63.30
43697;DHT22;29301;47.620;19.560;2023-05-10T05:49:34;12.00;62.90
43697;DHT22;29301;47.620;19.560;2023-05-10T05:52:01;11.90;62.50
43697;DHT22;29301;47.620;19.560;2023-05-10T05:54:27;11.90;61.70
43697;DHT22;29301;47.620;19.560;2023-05-10T05:56:59;11.80;61.40
43697;DHT22;29301;47.620;19.560;2023-05-10T05:59:26;11.80;62.30
43697;DHT22;29301;47.620;19.560;2023-05-10T06:01:51;11.90;62.70
43697;DHT22;29301;47.620;19.560;2023-05-10T06:04:18;11.90;63.60
43697;DHT22;29301;47.620;19.560;2023-05-10T06:06:44;11.90;64.30
43697;DHT22;29301;47.620;19.560;2023-05-10T06:09:10;12.00;65.10
43697;DHT22;29301;47.620;19.560;2023-05-10T06:11:36;12.10;65.90
43697;DHT22;29301;47.620;19.560;2023-05-10T06:14:02;12.20;65.90
43697;DHT22;29301;47.620;19.560;2023-05-10T06:16:30;12.40;66.00
43697;DHT22;29301;47.620;19.560;2023-05-10T06:18:55;12.50;66.20
43697;DHT22;29301;47.620;19.560;2023-05-10T06:21:21;12.50;66.00
43697;DHT22;29301;47.620;19.560;2023-05-10T06:23:47;12.60;66.50
43697;DHT22;29301;47.620;19.560;2023-05-10T06:26:12;12.70;66.10
43697;DHT22;29301;47.620;19.560;2023-05-10T06:28:39;12.80;65.80
43697;DHT22;29301;47.620;19.560;2023-05-10T06:31:05;13.00;64.50
43697;DHT22;29301;47.620;19.560;2023-05-10T06:33:32;13.10;64.40
43697;DHT22;29301;47.620;19.560;2023-05-10T06:35:58;13.30;63.60
43697;DHT22;29301;47.620;19.560;2023-05-10T06:38:23;13.50;61.80
43697;DHT22;29301;47.620;19.560;2023-05-10T06:40:49;13.80;61.20
43697;DHT22;29301;47.620;19.560;2023-05-10T06:43:15;13.90;59.10
43697;DHT22;29301;47.620;19.560;2023-05-10T06:45:41;14.00;57.60
43697;DHT22;29301;47.620;19.560;2023-05-10T06:48:07;14.10;58.20
43697;DHT22;29301;47.620;19.560;2023-05-10T06:50:33;14.30;56.10
43697;DHT22;29301;47.620;19.560;2023-05-10T06:52:59;14.30;54.50
43697;DHT22;29301;47.620;19.560;2023-05-10T06:55:25;14.40;54.20
43697;DHT22;29301;47.620;19.560;2023-05-10T06:57:50;14.50;54.10
43697;DHT22;29301;47.620;19.560;2023-05-10T07:00:17;14.70;53.90
43697;DHT22;29301;47.620;19.560;2023-05-10T07:02:43;14.80;53.90
43697;DHT22;29301;47.620;19.560;2023-05-10T07:05:09;15.10;53.90
43697;DHT22;29301;47.620;19.560;2023-05-10T07:07:34;15.10;52.10
43697;DHT22;29301;47.620;19.560;2023-05-10T07:10:01;15.30;52.30
43697;DHT22;29301;47.620;19.560;2023-05-10T07:12:27;15.60;52.00
43697;DHT22;29301;47.620;19.560;2023-05-10T07:14:53;15.60;50.20
43697;DHT22;29301;47.620;19.560;2023-05-10T07:17:19;15.40;50.20
43697;DHT22;29301;47.620;19.560;2023-05-10T07:19:44;15.30;50.60
43697;DHT22;29301;47.620;19.560;2023-05-10T07:22:10;15.50;50.40
43697;DHT22;29301;47.620;19.560;2023-05-10T07:24:36;15.90;49.40
43697;DHT22;29301;47.620;19.560;2023-05-10T07:27:01;16.10;47.60
43697;DHT22;29301;47.620;19.560;2023-05-10T07:29:27;16.20;47.30
43697;DHT22;29301;47.620;19.560;2023-05-10T07:31:54;16.20;47.40
43697;DHT22;29301;47.620;19.560;2023-05-10T07:34:19;16.10;47.10
43697;DHT22;29301;47.620;19.560;2023-05-10T07:36:45;16.00;47.30
43697;DHT22;29301;47.620;19.560;2023-05-10T07:39:11;16.20;47.50
43697;DHT22;29301;47.620;19.560;2023-05-10T07:41:37;16.10;46.10
43697;DHT22;29301;47.620;19.560;2023-05-10T07:44:04;16.00;47.60
43697;DHT22;29301;47.620;19.560;2023-05-10T07:46:30;15.90;47.50
43697;DHT22;29301;47.620;19.560;2023-05-10T07:48:56;15.90;47.00
43697;DHT22;29301;47.620;19.560;2023-05-10T07:51:22;16.10;46.80
43697;DHT22;29301;47.620;19.560;2023-05-10T07:53:47;16.60;46.60
43697;DHT22;29301;47.620;19.560;2023-05-10T07:56:28;16.30;44.40
43697;DHT22;29301;47.620;19.560;2023-05-10T07:58:58;15.40;46.70
43697;DHT22;29301;47.620;19.560;2023-05-10T08:01:25;15.30;49.00
43697;DHT22;29301;47.620;19.560;2023-05-10T08:03:51;15.70;47.70
43697;DHT22;29301;47.620;19.560;2023-05-10T08:06:19;16.30;47.60
43697;DHT22;29301;47.620;19.560;2023-05-10T08:08:48;16.90;46.30
43697;DHT22;29301;47.620;19.560;2023-05-10T08:11:19;17.10;44.80
43697;DHT22;29301;47.620;19.560;2023-05-10T08:13:46;17.10;43.80
43697;DHT22;29301;47.620;19.560;2023-05-10T08:16:12;16.80;44.40
43697;DHT22;29301;47.620;19.560;2023-05-10T08:18:39;16.70;45.20
43697;DHT22;29301;47.620;19.560;2023-05-10T08:21:04;16.70;45.00
43697;DHT22;29301;47.620;19.560;2023-05-10T08:23:30;16.80;45.00
43697;DHT22;29301;47.620;19.560;2023-05-10T08:25:56;17.00;45.60
43697;DHT22;29301;47.620;19.560;2023-05-10T08:28:22;17.40;44.40
43697;DHT22;29301;47.620;19.560;2023-05-10T08:30:49;17.60;43.20
43697;DHT22;29301;47.620;19.560;2023-05-10T08:33:14;17.50;42.80
43697;DHT22;29301;47.620;19.560;2023-05-10T08:35:40;17.60;42.60
43697;DHT22;29301;47.620;19.560;2023-05-10T08:38:06;17.80;41.90
43697;DHT22;29301;47.620;19.560;2023-05-10T08:40:32;18.10;41.60
43697;DHT22;29301;47.620;19.560;2023-05-10T08:43:16;18.10;41.80
43697;DHT22;29301;47.620;19.560;2023-05-10T08:45:43;18.00;41.10
43697;DHT22;29301;47.620;19.560;2023-05-10T08:48:11;17.80;41.10
43697;DHT22;29301;47.620;19.560;2023-05-10T08:50:39;17.70;41.70
43697;DHT22;29301;47.620;19.560;2023-05-10T08:53:12;18.00;41.10
43697;DHT22;29301;47.620;19.560;2023-05-10T08:55:39;18.00;40.80
43697;DHT22;29301;47.620;19.560;2023-05-10T08:58:09;18.20;40.60
43697;DHT22;29301;47.620;19.560;2023-05-10T09:00:35;17.90;39.50
43697;DHT22;29301;47.620;19.560;2023-05-10T09:03:03;17.90;40.60
43697;DHT22;29301;47.620;19.560;2023-05-10T09:05:29;18.30;40.80
43697;DHT22;29301;47.620;19.560;2023-05-10T09:07:55;18.50;40.00
43697;DHT22;29301;47.620;19.560;2023-05-10T09:10:20;18.60;39.40
43697;DHT22;29301;47.620;19.560;2023-05-10T09:12:48;18.30;39.40
43697;DHT22;29301;47.620;19.560;2023-05-10T09:15:15;18.00;39.30
43697;DHT22;29301;47.620;19.560;2023-05-10T09:17:44;17.80;39.10
43697;DHT22;29301;47.620;19.560;2023-05-10T09:20:11;17.40;39.80
43697;DHT22;29301;47.620;19.560;2023-05-10T09:22:36;17.40;41.00
43697;DHT22;29301;47.620;19.560;2023-05-10T09:25:04;17.50;40.50
43697;DHT22;29301;47.620;19.560;2023-05-10T09:27:30;17.50;40.00
43697;DHT22;29301;47.620;19.560;2023-05-10T09:29:56;17.60;40.20
43697;DHT22;29301;47.620;19.560;2023-05-10T09:32:39;17.80;39.80
43697;DHT22;29301;47.620;19.560;2023-05-10T09:35:11;17.60;38.30
43697;DHT22;29301;47.620;19.560;2023-05-10T09:37:39;17.10;39.90
43697;DHT22;29301;47.620;19.560;2023-05-10T09:40:12;17.50;40.10
43697;DHT22;29301;47.620;19.560;2023-05-10T09:42:38;17.60;38.90
43697;DHT22;29301;47.620;19.560;2023-05-10T09:45:05;17.60;39.40
43697;DHT22;29301;47.620;19.560;2023-05-10T09:47:37;17.80;39.50
43697;DHT22;29301;47.620;19.560;2023-05-10T09:50:03;18.00;38.90
43697;DHT22;29301;47.620;19.560;2023-05-10T09:53:07;18.10;38.20
43697;DHT22;29301;47.620;19.560;2023-05-10T09:55:44;18.10;37.30
43697;DHT22;29301;47.620;19.560;2023-05-10T09:58:12;17.90;37.00
43697;DHT22;29301;47.620;19.560;2023-05-10T10:00:43;17.70;38.50
43697;DHT22;29301;47.620;19.560;2023-05-10T10:03:14;17.90;37.80
43697;DHT22;29301;47.620;19.560;2023-05-10T10:05:41;18.40;37.30
43697;DHT22;29301;47.620;19.560;2023-05-10T10:08:10;18.60;36.40
43697;DHT22;29301;47.620;19.560;2023-05-10T10:10:37;18.50;35.10
43697;DHT22;29301;47.620;19.560;2023-05-10T10:13:05;18.00;36.90
43697;DHT22;29301;47.620;19.560;2023-05-10T10:15:34;18.00;37.50
43697;DHT22;29301;47.620;19.560;2023-05-10T10:18:00;18.20;36.50
43697;DHT22;29301;47.620;19.560;2023-05-10T10:20:27;18.50;35.90
43697;DHT22;29301;47.620;19.560;2023-05-10T10:22:53;18.70;35.30
43697;DHT22;29301;47.620;19.560;2023-05-10T10:25:20;18.80;34.90
43697;DHT22;29301;47.620;19.560;2023-05-10T10:30:41;18.30;36.20
43697;DHT22;29301;47.620;19.560;2023-05-10T10:35:58;18.40;36.20
43697;DHT22;29301;47.620;19.560;2023-05-10T10:38:24;18.70;35.40
43697;DHT22;29301;47.620;19.560;2023-05-10T10:41:02;18.90;35.10
43697;DHT22;29301;47.620;19.560;2023-05-10T10:43:28;18.80;35.20
43697;DHT22;29301;47.620;19.560;2023-05-10T10:48:37;18.40;33.70
43697;DHT22;29301;47.620;19.560;2023-05-10T10:51:03;18.40;34.70
43697;DHT22;29301;47.620;19.560;2023-05-10T10:53:29;18.50;35.30
43697;DHT22;29301;47.620;19.560;2023-05-10T10:56:12;18.30;35.20
43697;DHT22;29301;47.620;19.560;2023-05-10T10:58:41;18.20;35.30
43697;DHT22;29301;47.620;19.560;2023-05-10T11:01:19;18.10;35.80
43697;DHT22;29301;47.620;19.560;2023-05-10T11:06:40;18.50;36.20
43697;DHT22;29301;47.620;19.560;2023-05-10T11:09:09;18.70;36.30
43697;DHT22;29301;47.620;19.560;2023-05-10T11:11:36;18.80;35.30
43697;DHT22;29301;47.620;19.560;2023-05-10T11:14:06;18.90;34.40
43697;DHT22;29301;47.620;19.560;2023-05-10T11:16:43;18.80;33.80
43697;DHT22;29301;47.620;19.560;2023-05-10T11:19:11;18.60;34.40
43697;DHT22;29301;47.620;19.560;2023-05-10T11:24:19;18.50;35.10
43697;DHT22;29301;47.620;19.560;2023-05-10T11:26:45;18.50;35.10
43697;DHT22;29301;47.620;19.560;2023-05-10T11:29:13;18.40;35.10
43697;DHT22;29301;47.620;19.560;2023-05-10T11:31:46;18.50;35.00
43697;DHT22;29301;47.620;19.560;2023-05-10T11:34:26;18.50;35.20
43697;DHT22;29301;47.620;19.560;2023-05-10T11:36:53;18.40;34.90
43697;DHT22;29301;47.620;19.560;2023-05-10T11:39:26;18.50;34.70
43697;DHT22;29301;47.620;19.560;2023-05-10T11:41:53;18.50;33.70
43697;DHT22;29301;47.620;19.560;2023-05-10T11:44:18;18.60;33.70
43697;DHT22;29301;47.620;19.560;2023-05-10T11:46:44;18.60;33.90
43697;DHT22;29301;47.620;19.560;2023-05-10T11:49:10;18.90;33.30
43697;DHT22;29301;47.620;19.560;2023-05-10T11:51:36;19.10;33.10
43697;DHT22;29301;47.620;19.560;2023-05-10T11:54:06;19.30;33.90
43697;DHT22;29301;47.620;19.560;2023-05-10T11:56:33;19.60;33.80
43697;DHT22;29301;47.620;19.560;2023-05-10T11:59:00;19.90;31.90
43697;DHT22;29301;47.620;19.560;2023-05-10T12:01:28;20.00;30.10
43697;DHT22;29301;47.620;19.560;2023-05-10T12:03:56;19.70;31.40
43697;DHT22;29301;47.620;19.560;2023-05-10T12:06:30;19.70;32.00
43697;DHT22;29301;47.620;19.560;2023-05-10T12:08:56;19.90;32.50
43697;DHT22;29301;47.620;19.560;2023-05-10T12:11:25;20.00;30.80
43697;DHT22;29301;47.620;19.560;2023-05-10T12:13:51;19.80;30.70
43697;DHT22;29301;47.620;19.560;2023-05-10T12:18:55;19.90;31.20
43697;DHT22;29301;47.620;19.560;2023-05-10T12:21:21;19.60;32.40
43697;DHT22;29301;47.620;19.560;2023-05-10T12:23:52;19.60;32.00
43697;DHT22;29301;47.620;19.560;2023-05-10T12:26:21;19.70;32.40
43697;DHT22;29301;47.620;19.560;2023-05-10T12:28:46;19.70;31.90
43697;DHT22;29301;47.620;19.560;2023-05-10T12:31:12;19.70;32.10
43697;DHT22;29301;47.620;19.560;2023-05-10T12:33:40;19.70;32.60
43697;DHT22;29301;47.620;19.560;2023-05-10T12:36:10;19.70;32.30
43697;DHT22;29301;47.620;19.560;2023-05-10T12:38:38;19.70;32.50
43697;DHT22;29301;47.620;19.560;2023-05-10T12:41:06;19.60;32.90
43697;DHT22;29301;47.620;19.560;2023-05-10T12:43:33;19.60;32.50
43697;DHT22;29301;47.620;19.560;2023-05-10T12:46:05;19.60;32.30
43697;DHT22;29301;47.620;19.560;2023-05-10T12:48:31;19.50;32.60
43697;DHT22;29301;47.620;19.560;2023-05-10T12:50:57;19.50;33.00
43697;DHT22;29301;47.620;19.560;2023-05-10T12:53:22;19.40;31.90
43697;DHT22;29301;47.620;19.560;2023-05-10T12:55:48;19.40;32.20
43697;DHT22;29301;47.620;19.560;2023-05-10T12:58:14;19.30;32.20
43697;DHT22;29301;47.620;19.560;2023-05-10T13:00:39;19.50;32.10
43697;DHT22;29301;47.620;19.560;2023-05-10T13:03:05;19.50;31.50
43697;DHT22;29301;47.620;19.560;2023-05-10T13:05:34;19.50;30.00
43697;DHT22;29301;47.620;19.560;2023-05-10T13:07:59;19.30;29.80
43697;DHT22;29301;47.620;19.560;2023-05-10T13:10:25;19.30;30.40
43697;DHT22;29301;47.620;19.560;2023-05-10T13:12:51;19.50;30.00
43697;DHT22;29301;47.620;19.560;2023-05-10T13:15:17;19.40;29.90
43697;DHT22;29301;47.620;19.560;2023-05-10T13:17:42;19.40;29.90
43697;DHT22;29301;47.620;19.560;2023-05-10T13:20:09;19.40;29.80
43697;DHT22;29301;47.620;19.560;2023-05-10T13:22:35;19.10;30.20
43697;DHT22;29301;47.620;19.560;2023-05-10T13:25:02;19.00;30.70
43697;DHT22;29301;47.620;19.560;2023-05-10T13:27:28;19.00;30.50
43697;DHT22;29301;47.620;19.560;2023-05-10T13:29:54;19.20;30.00
43697;DHT22;29301;47.620;19.560;2023-05-10T13:32:20;19.20;29.70
43697;DHT22;29301;47.620;19.560;2023-05-10T13:34:46;19.10;29.90
43697;DHT22;29301;47.620;19.560;2023-05-10T13:37:11;18.90;30.70
43697;DHT22;29301;47.620;19.560;2023-05-10T13:39:37;18.90;31.30
43697;DHT22;29301;47.620;19.560;2023-05-10T13:42:03;19.00;31.20
43697;DHT22;29301;47.620;19.560;2023-05-10T13:44:29;19.00;31.10
43697;DHT22;29301;47.620;19.560;2023-05-10T13:46:56;19.10;30.80
43697;DHT22;29301;47.620;19.560;2023-05-10T13:49:22;19.00;29.70
43697;DHT22;29301;47.620;19.560;2023-05-10T13:51:47;19.00;30.00
43697;DHT22;29301;47.620;19.560;2023-05-10T13:54:13;19.00;30.10
43697;DHT22;29301;47.620;19.560;2023-05-10T13:56:39;19.10;30.00
43697;DHT22;29301;47.620;19.560;2023-05-10T13:59:06;19.30;30.10
43697;DHT22;29301;47.620;19.560;2023-05-10T14:01:33;19.30;30.00
43697;DHT22;29301;47.620;19.560;2023-05-10T14:03:59;19.40;30.10
43697;DHT22;29301;47.620;19.560;2023-05-10T14:06:25;19.40;30.00
43697;DHT22;29301;47.620;19.560;2023-05-10T14:08:52;19.30;30.10
43697;DHT22;29301;47.620;19.560;2023-05-10T14:11:19;19.30;30.20
43697;DHT22;29301;47.620;19.560;2023-05-10T14:13:45;19.20;31.60
43697;DHT22;29301;47.620;19.560;2023-05-10T14:16:10;19.10;32.00
43697;DHT22;29301;47.620;19.560;2023-05-10T14:18:37;19.00;31.10
43697;DHT22;29301;47.620;19.560;2023-05-10T14:21:03;19.00;30.50
43697;DHT22;29301;47.620;19.560;2023-05-10T14:23:29;19.00;29.70
43697;DHT22;29301;47.620;19.560;2023-05-10T14:25:55;18.90;30.20
43697;DHT22;29301;47.620;19.560;2023-05-10T14:28:21;18.90;30.30
43697;DHT22;29301;47.620;19.560;2023-05-10T14:30:48;18.80;30.40
43697;DHT22;29301;47.620;19.560;2023-05-10T14:33:14;18.80;30.40
43697;DHT22;29301;47.620;19.560;2023-05-10T14:35:39;18.80;30.30
43697;DHT22;29301;47.620;19.560;2023-05-10T14:38:05;18.80;30.30
43697;DHT22;29301;47.620;19.560;2023-05-10T14:40:31;18.70;30.70
43697;DHT22;29301;47.620;19.560;2023-05-10T14:42:57;18.70;31.40
43697;DHT22;29301;47.620;19.560;2023-05-10T14:45:23;18.80;31.50
43697;DHT22;29301;47.620;19.560;2023-05-10T14:47:49;18.60;31.70
43697;DHT22;29301;47.620;19.560;2023-05-10T14:50:15;18.60;31.60
43697;DHT22;29301;47.620;19.560;2023-05-10T14:52:42;18.60;31.30
43697;DHT22;29301;47.620;19.560;2023-05-10T14:55:08;18.60;31.00
43697;DHT22;29301;47.620;19.560;2023-05-10T14:57:34;18.60;31.40
43697;DHT22;29301;47.620;19.560;2023-05-10T14:59:59;18.60;31.20
43697;DHT22;29301;47.620;19.560;2023-05-10T15:02:25;18.60;30.90
43697;DHT22;29301;47.620;19.560;2023-05-10T15:04:51;18.70;31.00
43697;DHT22;29301;47.620;19.560;2023-05-10T15:07:17;18.70;31.60
43697;DHT22;29301;47.620;19.560;2023-05-10T15:09:44;18.70;33.70
43697;DHT22;29301;47.620;19.560;2023-05-10T15:12:10;18.80;34.80
43697;DHT22;29301;47.620;19.560;2023-05-10T15:14:36;18.80;35.10
43697;DHT22;29301;47.620;19.560;2023-05-10T15:17:02;18.70;35.40
43697;DHT22;29301;47.620;19.560;2023-05-10T15:19:28;18.70;35.70
43697;DHT22;29301;47.620;19.560;2023-05-10T15:21:55;18.60;36.20
43697;DHT22;29301;47.620;19.560;2023-05-10T15:24:21;18.60;36.00
43697;DHT22;29301;47.620;19.560;2023-05-10T15:26:47;18.70;34.90
43697;DHT22;29301;47.620;19.560;2023-05-10T15:29:13;18.70;34.10
43697;DHT22;29301;47.620;19.560;2023-05-10T15:31:46;18.70;33.80
43697;DHT22;29301;47.620;19.560;2023-05-10T15:34:11;18.70;33.30
43697;DHT22;29301;47.620;19.560;2023-05-10T15:36:38;18.70;33.20
43697;DHT22;29301;47.620;19.560;2023-05-10T15:39:03;18.70;33.20
43697;DHT22;29301;47.620;19.560;2023-05-10T15:41:29;18.80;33.80
43697;DHT22;29301;47.620;19.560;2023-05-10T15:43:55;18.80;33.00
43697;DHT22;29301;47.620;19.560;2023-05-10T15:46:21;18.80;32.60
43697;DHT22;29301;47.620;19.560;2023-05-10T15:48:47;18.80;32.00
43697;DHT22;29301;47.620;19.560;2023-05-10T15:51:12;18.70;32.10
43697;DHT22;29301;47.620;19.560;2023-05-10T15:53:38;18.70;33.00